createdAt,value
2023-03-04T00:01:07.338Z,100.00
2023-03-04T00:03:40.563Z,100.00
2023-03-04T00:06:27.354Z,100.00
2023-03-04T00:09:00.473Z,100.00
2023-03-04T00:11:47.351Z,100.00
2023-03-04T00:14:29.363Z,100.00
2023-03-04T00:17:24.389Z,100.00
2023-03-04T00:20:11.387Z,100.00
2023-03-04T00:22:44.492Z,100.00
2023-03-04T00:25:31.351Z,100.00
2023-03-04T00:28:04.517Z,100.00
2023-03-04T00:30:51.361Z,100.00
2023-03-04T00:33:24.468Z,100.00
2023-03-04T00:36:11.375Z,100.00
2023-03-04T00:38:45.523Z,100.00
2023-03-04T00:41:32.464Z,100.00
2023-03-04T00:44:12.404Z,100.00
2023-03-04T00:47:06.368Z,100.00
2023-03-04T00:49:53.386Z,100.00
2023-03-04T00:52:26.471Z,100.00
2023-03-04T00:55:14.339Z,100.00
2023-03-04T00:57:54.358Z,100.00
2023-03-04T01:00:48.356Z,100.00
2023-03-04T01:03:38.367Z,100.00
2023-03-04T01:06:11.540Z,100.00
2023-03-04T01:08:58.386Z,100.00
2023-03-04T01:11:31.469Z,100.00
2023-03-04T01:14:18.363Z,100.00
2023-03-04T01:16:52.483Z,100.00
2023-03-04T01:19:39.355Z,100.00
2023-03-04T01:22:13.735Z,100.00
2023-03-04T01:25:00.402Z,100.00
2023-03-04T01:27:33.440Z,100.00
2023-03-04T01:30:20.367Z,100.00
2023-03-04T01:33:00.378Z,100.00
2023-03-04T01:35:54.428Z,100.00
2023-03-04T01:38:41.362Z,100.00
2023-03-04T01:41:14.527Z,100.00
2023-03-04T01:44:11.385Z,100.00
2023-03-04T01:47:09.432Z,100.00
2023-03-04T01:50:01.395Z,100.00
2023-03-04T01:52:34.459Z,100.00
2023-03-04T01:55:27.377Z,100.00
2023-03-04T01:58:08.366Z,100.00
2023-03-04T02:01:02.388Z,100.00
2023-03-04T02:03:49.374Z,100.00
2023-03-04T02:06:22.467Z,100.00
2023-03-04T02:09:10.421Z,100.00
2023-03-04T02:11:44.527Z,100.00
2023-03-04T02:14:31.410Z,100.00
2023-03-04T02:17:04.492Z,100.00
2023-03-04T02:20:22.400Z,100.00
2023-03-04T02:23:19.386Z,100.00
2023-03-04T02:26:18.378Z,100.00
2023-03-04T02:29:01.346Z,100.00
2023-03-04T02:32:01.441Z,100.00
2023-03-04T02:34:53.386Z,100.00
2023-03-04T02:37:26.554Z,100.00
2023-03-04T02:40:21.416Z,100.00
2023-03-04T02:42:54.529Z,100.00
2023-03-04T02:45:47.391Z,100.00
2023-03-04T02:48:25.093Z,100.00
2023-03-04T02:51:11.394Z,100.00
2023-03-04T02:53:44.558Z,100.00
2023-03-04T02:56:31.393Z,100.00
2023-03-04T02:59:04.483Z,100.00
2023-03-04T03:01:51.442Z,100.00
2023-03-04T03:04:33.398Z,100.00
2023-03-04T03:07:27.413Z,100.00
2023-03-04T03:10:14.405Z,100.00
2023-03-04T03:12:47.563Z,100.00
2023-03-04T03:15:34.411Z,100.00
2023-03-04T03:18:07.480Z,100.00
2023-03-04T03:20:54.515Z,100.00
2023-03-04T03:23:27.507Z,100.00
2023-03-04T03:26:14.411Z,100.00
2023-03-04T03:28:47.496Z,100.00
2023-03-04T03:31:34.458Z,100.00
2023-03-04T03:34:07.526Z,100.00
2023-03-04T03:36:54.395Z,100.00
2023-03-04T03:39:34.418Z,100.00
2023-03-04T03:42:21.414Z,100.00
2023-03-04T03:45:13.116Z,100.00
2023-03-04T03:47:59.421Z,100.00
2023-03-04T03:50:39.423Z,100.00
2023-03-04T03:53:33.440Z,100.00
2023-03-04T03:56:20.430Z,100.00
2023-03-04T03:58:53.559Z,100.00
2023-03-04T04:01:40.430Z,100.00
2023-03-04T04:04:13.522Z,100.00
2023-03-04T04:07:00.414Z,100.00
2023-03-04T04:09:40.405Z,100.00
2023-03-04T04:12:27.419Z,100.00
2023-03-04T04:15:00.501Z,100.00
2023-03-04T04:17:47.426Z,100.00
2023-03-04T04:20:27.431Z,100.00
2023-03-04T04:23:21.434Z,100.00
2023-03-04T04:26:08.462Z,100.00
2023-03-04T04:28:41.603Z,100.00
2023-03-04T04:31:28.603Z,100.00
2023-03-04T04:34:01.624Z,100.00
2023-03-04T04:36:48.421Z,100.00
2023-03-04T04:39:21.508Z,100.00
2023-03-04T04:42:08.490Z,100.00
2023-03-04T04:44:41.568Z,100.00
2023-03-04T04:47:28.442Z,100.00
2023-03-04T04:50:01.590Z,100.00
2023-03-04T04:52:48.436Z,100.00
2023-03-04T04:55:21.509Z,100.00
2023-03-04T04:58:08.436Z,100.00
2023-03-04T05:00:48.423Z,100.00
2023-03-04T05:03:42.540Z,100.00
2023-03-04T05:06:37.492Z,100.00
2023-03-04T05:09:24.455Z,100.00
2023-03-04T05:12:04.455Z,100.00
2023-03-04T05:14:58.511Z,100.00
2023-03-04T05:17:45.455Z,100.00
2023-03-04T05:20:25.446Z,100.00
2023-03-04T05:23:12.454Z,100.00
2023-03-04T05:25:52.448Z,100.00
2023-03-04T05:28:46.509Z,100.00
2023-03-04T05:31:40.444Z,100.00
2023-03-04T05:34:34.431Z,100.00
2023-03-04T05:37:21.470Z,100.00
2023-03-04T05:39:54.535Z,100.00
2023-03-04T05:42:41.475Z,100.00
2023-03-04T05:45:35.457Z,100.00
2023-03-04T05:48:22.436Z,100.00
2023-03-04T05:51:01.674Z,100.00
2023-03-04T05:53:48.465Z,100.00
2023-03-04T05:56:31.463Z,100.00
2023-03-04T05:59:19.174Z,100.00
2023-03-04T06:01:53.562Z,100.00
2023-03-04T06:04:40.465Z,100.00
2023-03-04T06:07:20.474Z,100.00
2023-03-04T06:10:14.472Z,100.00
2023-03-04T06:13:08.492Z,100.00
2023-03-04T06:16:03.516Z,100.00
2023-03-04T06:18:36.603Z,100.00
2023-03-04T06:21:23.492Z,100.00
2023-03-04T06:24:03.458Z,100.00
2023-03-04T06:26:50.459Z,100.00
2023-03-04T06:29:30.478Z,100.00
2023-03-04T06:32:24.540Z,100.00
2023-03-04T06:35:11.468Z,100.00
2023-03-04T06:37:44.558Z,100.00
2023-03-04T06:40:31.538Z,100.00
2023-03-04T06:43:04.593Z,100.00
2023-03-04T06:45:51.542Z,100.00
2023-03-04T06:48:24.576Z,100.00
2023-03-04T06:51:18.480Z,100.00
2023-03-04T06:53:52.600Z,100.00
2023-03-04T06:56:39.477Z,100.00
2023-03-04T06:59:12.565Z,100.00
2023-03-04T07:01:59.505Z,100.00
2023-03-04T07:04:32.561Z,100.00
2023-03-04T07:07:19.492Z,100.00
2023-03-04T07:09:59.610Z,100.00
2023-03-04T07:12:53.471Z,100.00
2023-03-04T07:15:47.466Z,100.00
2023-03-04T07:18:41.466Z,100.00
2023-03-04T07:21:28.487Z,100.00
2023-03-04T07:24:10.480Z,100.00
2023-03-04T07:26:57.497Z,100.00
2023-03-04T07:29:37.487Z,99.78
2023-03-04T07:32:24.501Z,99.11
2023-03-04T07:35:04.494Z,98.60
2023-03-04T07:37:58.481Z,97.77
2023-03-04T07:40:45.506Z,97.50
2023-03-04T07:43:19.570Z,97.30
2023-03-04T07:46:08.556Z,97.10
2023-03-04T07:48:42.591Z,97.41
2023-03-04T07:51:32.482Z,95.31
2023-03-04T07:54:14.504Z,95.02
2023-03-04T07:57:08.495Z,94.54
2023-03-04T07:59:55.498Z,93.06
2023-03-04T08:02:28.607Z,91.04
2023-03-04T08:05:15.507Z,88.59
2023-03-04T08:07:55.514Z,88.00
2023-03-04T08:10:43.483Z,87.03
2023-03-04T08:13:16.584Z,86.29
2023-03-04T08:16:03.552Z,83.65
2023-03-04T08:18:36.683Z,83.98
2023-03-04T08:21:28.503Z,82.33
2023-03-04T08:24:14.497Z,83.08
2023-03-04T08:27:08.506Z,82.19
2023-03-04T08:30:02.505Z,80.74
2023-03-04T08:32:49.560Z,79.27
2023-03-04T08:35:22.650Z,80.55
2023-03-04T08:38:09.521Z,78.49
2023-03-04T08:40:42.592Z,79.76
2023-03-04T08:43:37.494Z,76.60
2023-03-04T08:46:24.539Z,75.79
2023-03-04T08:49:04.500Z,76.03
2023-03-04T08:51:58.522Z,75.07
2023-03-04T08:54:45.508Z,73.86
2023-03-04T08:57:18.641Z,73.94
2023-03-04T09:00:05.523Z,72.09
2023-03-04T09:02:38.641Z,71.57
2023-03-04T09:05:25.528Z,70.27
2023-03-04T09:08:05.516Z,69.72
2023-03-04T09:11:00.532Z,66.02
2023-03-04T09:13:47.536Z,65.94
2023-03-04T09:16:21.696Z,63.79
2023-03-04T09:19:08.532Z,64.81
2023-03-04T09:21:41.617Z,65.63
2023-03-04T09:24:29.544Z,63.20
2023-03-04T09:27:02.640Z,60.61
2023-03-04T09:29:50.570Z,60.65
2023-03-04T09:32:23.709Z,58.05
2023-03-04T09:35:10.506Z,58.69
2023-03-04T09:37:44.620Z,59.62
2023-03-04T09:40:36.566Z,56.89
2023-03-04T09:43:11.673Z,57.13
2023-03-04T09:46:01.523Z,57.38
2023-03-04T09:48:36.612Z,56.50
2023-03-04T09:51:31.555Z,57.82
2023-03-04T09:54:24.522Z,59.20
2023-03-04T09:57:43.542Z,58.10
2023-03-04T10:00:49.576Z,57.02
2023-03-04T10:04:01.538Z,56.08
2023-03-04T10:06:49.551Z,56.28
2023-03-04T10:09:30.651Z,54.73
2023-03-04T10:12:24.549Z,55.39
2023-03-04T10:15:25.695Z,56.77
2023-03-04T10:18:25.559Z,57.79
2023-03-04T10:21:11.539Z,59.50
2023-03-04T10:24:05.556Z,63.13
2023-03-04T10:26:56.542Z,64.36
2023-03-04T10:29:32.644Z,65.59
2023-03-04T10:32:23.560Z,66.83
2023-03-04T10:34:56.667Z,68.26
2023-03-04T10:37:58.532Z,67.81
2023-03-04T10:40:32.660Z,69.42
2023-03-04T10:43:34.541Z,70.55
2023-03-04T10:46:29.550Z,70.56
2023-03-04T10:49:24.553Z,71.60
2023-03-04T10:52:29.533Z,71.50
2023-03-04T10:55:06.674Z,70.67
2023-03-04T10:58:00.537Z,71.27
2023-03-04T11:00:42.718Z,70.85
2023-03-04T11:03:34.594Z,71.67
2023-03-04T11:06:23.627Z,72.42
2023-03-04T11:09:10.547Z,72.29
2023-03-04T11:11:59.550Z,73.06
2023-03-04T11:14:59.554Z,72.63
2023-03-04T11:17:56.554Z,74.54
2023-03-04T11:20:43.680Z,75.26
2023-03-04T11:23:33.559Z,75.54
2023-03-04T11:26:11.642Z,75.93
2023-03-04T11:29:04.569Z,75.79
2023-03-04T11:31:45.680Z,75.75
2023-03-04T11:34:51.552Z,75.91
2023-03-04T11:37:44.651Z,75.49
2023-03-04T11:41:05.579Z,75.81
2023-03-04T11:43:48.776Z,75.42
2023-03-04T11:46:50.594Z,75.27
2023-03-04T11:49:33.576Z,74.92
2023-03-04T11:52:39.580Z,76.26
2023-03-04T11:55:30.607Z,77.46
2023-03-04T11:58:26.583Z,77.86
2023-03-04T12:01:10.778Z,77.93
2023-03-04T12:04:25.668Z,77.65
2023-03-04T12:07:06.691Z,78.07
2023-03-04T12:10:11.588Z,78.13
2023-03-04T12:13:26.604Z,78.28
2023-03-04T12:16:42.606Z,79.73
2023-03-04T12:19:56.611Z,79.48
2023-03-04T12:22:58.597Z,79.67
2023-03-04T12:25:46.581Z,79.46
2023-03-04T12:28:50.601Z,80.93
2023-03-04T12:31:46.580Z,80.80
2023-03-04T12:35:05.597Z,80.11
2023-03-04T12:37:58.440Z,81.37
2023-03-04T12:40:50.623Z,82.14
2023-03-04T12:43:23.734Z,81.83
2023-03-04T12:46:33.658Z,81.69
2023-03-04T12:49:47.600Z,80.38
2023-03-04T12:53:06.627Z,80.21
2023-03-04T12:56:01.605Z,80.87
2023-03-04T12:58:55.618Z,80.01
2023-03-04T13:01:56.609Z,80.54
2023-03-04T13:04:43.739Z,80.23
2023-03-04T13:08:08.617Z,80.88
2023-03-04T13:10:49.609Z,80.63
2023-03-04T13:13:39.611Z,80.75
2023-03-04T13:16:42.591Z,80.51
2023-03-04T13:19:57.620Z,79.19
2023-03-04T13:22:47.636Z,79.89
2023-03-04T13:25:48.069Z,79.81
2023-03-04T13:28:43.620Z,80.01
2023-03-04T13:31:16.916Z,79.67
2023-03-04T13:34:06.623Z,80.31
2023-03-04T13:36:59.691Z,81.21
2023-03-04T13:39:46.649Z,81.40
2023-03-04T13:42:48.710Z,82.52
2023-03-04T13:45:42.619Z,81.83
2023-03-04T13:48:39.620Z,81.42
2023-03-04T13:51:47.628Z,81.84
2023-03-04T13:54:45.621Z,82.53
2023-03-04T13:57:32.657Z,82.11
2023-03-04T14:00:06.757Z,82.39
2023-03-04T14:02:53.623Z,82.98
2023-03-04T14:05:33.647Z,82.87
2023-03-04T14:08:32.615Z,82.76
2023-03-04T14:11:37.641Z,83.47
2023-03-04T14:14:37.604Z,83.78
2023-03-04T14:17:24.751Z,83.37
2023-03-04T14:20:36.639Z,82.81
2023-03-04T14:23:38.663Z,84.04
2023-03-04T14:26:32.672Z,83.16
2023-03-04T14:29:31.648Z,83.97
2023-03-04T14:32:06.956Z,83.44
2023-03-04T14:34:56.637Z,84.48
2023-03-04T14:37:33.744Z,83.85
2023-03-04T14:40:28.636Z,84.03
2023-03-04T14:43:10.744Z,84.04
2023-03-04T14:46:03.701Z,84.39
2023-03-04T14:48:46.657Z,84.86
2023-03-04T14:52:01.649Z,84.68
2023-03-04T14:54:55.632Z,84.03
2023-03-04T14:57:42.651Z,83.80
2023-03-04T15:00:27.753Z,84.71
2023-03-04T15:03:28.668Z,85.09
2023-03-04T15:06:02.738Z,85.55
2023-03-04T15:08:49.665Z,85.66
2023-03-04T15:11:32.818Z,85.72
2023-03-04T15:14:48.686Z,85.61
2023-03-04T15:17:42.699Z,86.86
2023-03-04T15:20:33.643Z,86.04
2023-03-04T15:23:14.691Z,86.15
2023-03-04T15:26:04.723Z,86.90
2023-03-04T15:28:43.773Z,86.89
2023-03-04T15:31:32.656Z,87.89
2023-03-04T15:34:12.643Z,87.67
2023-03-04T15:37:13.659Z,88.42
2023-03-04T15:40:02.684Z,88.34
2023-03-04T15:42:35.760Z,89.31
2023-03-04T15:45:42.701Z,88.73
2023-03-04T15:48:36.667Z,88.58
2023-03-04T15:51:35.669Z,88.05
2023-03-04T15:54:23.675Z,88.26
2023-03-04T15:57:04.663Z,88.04
2023-03-04T15:59:58.650Z,87.76
2023-03-04T16:02:46.661Z,88.01
2023-03-04T16:05:21.458Z,88.41
2023-03-04T16:08:07.684Z,87.82
2023-03-04T16:10:40.933Z,87.82
2023-03-04T16:13:29.674Z,88.40
2023-03-04T16:16:02.908Z,87.88
2023-03-04T16:18:49.676Z,88.36
2023-03-04T16:21:34.682Z,88.18
2023-03-04T16:24:31.724Z,88.53
2023-03-04T16:27:24.683Z,88.37
2023-03-04T16:29:57.870Z,88.32
2023-03-04T16:32:44.680Z,88.41
2023-03-04T16:35:25.725Z,88.60
2023-03-04T16:38:36.672Z,89.21
2023-03-04T16:41:34.722Z,88.95
2023-03-04T16:44:28.681Z,88.49
2023-03-04T16:47:22.697Z,89.36
2023-03-04T16:50:09.684Z,89.11
2023-03-04T16:52:43.865Z,88.93
2023-03-04T16:55:35.704Z,88.49
2023-03-04T16:58:08.784Z,88.73
2023-03-04T17:00:55.690Z,89.15
2023-03-04T17:03:35.686Z,89.22
2023-03-04T17:06:29.748Z,88.98
2023-03-04T17:09:16.687Z,88.18
2023-03-04T17:11:58.319Z,87.82
2023-03-04T17:14:46.691Z,88.24
2023-03-04T17:17:26.689Z,88.29
2023-03-04T17:20:15.704Z,88.98
2023-03-04T17:22:56.698Z,88.49
2023-03-04T17:25:50.760Z,88.86
2023-03-04T17:28:37.705Z,88.56
2023-03-04T17:31:18.867Z,88.49
2023-03-04T17:34:05.719Z,88.08
2023-03-04T17:36:38.886Z,88.08
2023-03-04T17:39:25.754Z,87.98
2023-03-04T17:41:59.859Z,88.05
2023-03-04T17:44:53.719Z,88.26
2023-03-04T17:47:40.715Z,88.47
2023-03-04T17:50:14.809Z,88.41
2023-03-04T17:53:03.774Z,88.53
2023-03-04T17:55:44.637Z,88.79
2023-03-04T17:58:31.722Z,88.43
2023-03-04T18:01:20.825Z,88.57
2023-03-04T18:04:07.729Z,88.07
2023-03-04T18:06:41.639Z,88.08
2023-03-04T18:09:28.727Z,87.55
2023-03-04T18:12:08.714Z,87.69
2023-03-04T18:15:02.720Z,87.26
2023-03-04T18:17:51.725Z,87.37
2023-03-04T18:20:27.872Z,86.66
2023-03-04T18:23:14.712Z,87.27
2023-03-04T18:25:47.955Z,87.56
2023-03-04T18:28:35.719Z,87.01
2023-03-04T18:31:10.478Z,86.55
2023-03-04T18:33:56.721Z,86.01
2023-03-04T18:36:36.713Z,85.96
2023-03-04T18:39:23.724Z,85.46
2023-03-04T18:41:56.826Z,85.59
2023-03-04T18:44:50.732Z,86.10
2023-03-04T18:47:46.761Z,85.89
2023-03-04T18:50:33.750Z,85.51
2023-03-04T18:53:06.896Z,85.72
2023-03-04T18:55:53.725Z,85.21
2023-03-04T18:58:37.755Z,85.12
2023-03-04T19:01:35.737Z,85.05
2023-03-04T19:04:31.762Z,85.52
2023-03-04T19:07:18.754Z,85.98
2023-03-04T19:09:51.872Z,86.12
2023-03-04T19:12:40.760Z,85.85
2023-03-04T19:15:21.742Z,86.46
2023-03-04T19:18:15.765Z,85.95
2023-03-04T19:21:06.746Z,86.20
2023-03-04T19:23:40.119Z,86.46
2023-03-04T19:26:26.747Z,86.19
2023-03-04T19:28:59.886Z,86.54
2023-03-04T19:31:46.737Z,86.25
2023-03-04T19:34:26.744Z,85.41
2023-03-04T19:37:20.774Z,85.56
2023-03-04T19:40:07.752Z,86.50
2023-03-04T19:42:41.865Z,85.90
2023-03-04T19:45:35.746Z,84.64
2023-03-04T19:48:48.764Z,85.07
2023-03-04T19:51:42.777Z,84.34
2023-03-04T19:54:29.742Z,83.13
2023-03-04T19:57:04.897Z,83.58
2023-03-04T19:59:51.746Z,82.99
2023-03-04T20:02:31.758Z,84.23
2023-03-04T20:05:25.765Z,83.96
2023-03-04T20:08:12.784Z,83.43
2023-03-04T20:10:45.951Z,83.00
2023-03-04T20:13:32.751Z,83.14
2023-03-04T20:16:05.895Z,82.94
2023-03-04T20:18:52.775Z,83.00
2023-03-04T20:21:26.942Z,82.96
2023-03-04T20:24:13.775Z,82.71
2023-03-04T20:26:46.893Z,82.78
2023-03-04T20:29:35.773Z,83.08
2023-03-04T20:32:08.989Z,83.54
2023-03-04T20:35:03.776Z,83.69
2023-03-04T20:37:36.896Z,84.01
2023-03-04T20:40:23.787Z,83.81
2023-03-04T20:43:03.789Z,83.52
2023-03-04T20:46:05.827Z,83.84
2023-03-04T20:48:52.776Z,83.39
2023-03-04T20:51:26.311Z,83.80
2023-03-04T20:54:13.781Z,83.74
2023-03-04T20:56:47.892Z,84.06
2023-03-04T20:59:34.763Z,84.18
2023-03-04T21:02:07.876Z,84.50
2023-03-04T21:04:54.773Z,84.68
2023-03-04T21:07:27.890Z,84.89
2023-03-04T21:10:14.772Z,85.73
2023-03-04T21:12:48.746Z,85.55
2023-03-04T21:15:54.784Z,85.67
2023-03-04T21:18:29.605Z,85.92
2023-03-04T21:21:22.801Z,86.37
2023-03-04T21:24:04.780Z,86.43
2023-03-04T21:26:58.818Z,86.70
2023-03-04T21:29:46.782Z,86.67
2023-03-04T21:32:25.169Z,87.07
2023-03-04T21:35:11.801Z,87.19
2023-03-04T21:37:47.503Z,87.42
2023-03-04T21:40:33.808Z,87.50
2023-03-04T21:43:10.065Z,87.41
2023-03-04T21:46:11.862Z,87.57
2023-03-04T21:49:05.811Z,87.86
2023-03-04T21:51:52.819Z,88.06
2023-03-04T21:54:26.034Z,88.26
2023-03-04T21:57:12.814Z,88.37
2023-03-04T21:59:53.828Z,88.07
2023-03-04T22:02:47.828Z,88.84
2023-03-04T22:05:34.855Z,88.82
2023-03-04T22:08:08.095Z,88.79
2023-03-04T22:10:54.880Z,89.68
2023-03-04T22:13:28.112Z,89.37
2023-03-04T22:16:15.860Z,89.50
2023-03-04T22:18:49.033Z,89.53
2023-03-04T22:21:35.910Z,90.10
2023-03-04T22:24:15.817Z,90.13
2023-03-04T22:27:11.298Z,90.32
2023-03-04T22:29:57.841Z,90.45
2023-03-04T22:32:31.018Z,90.23
2023-03-04T22:35:17.865Z,90.47
2023-03-04T22:37:52.019Z,90.49
2023-03-04T22:40:40.029Z,90.63
2023-03-04T22:43:12.997Z,90.79
2023-03-04T22:46:09.936Z,91.45
2023-03-04T22:49:10.971Z,92.20
2023-03-04T22:51:57.921Z,91.75
2023-03-04T22:54:31.237Z,92.53
2023-03-04T22:57:17.923Z,93.04
2023-03-04T22:59:57.927Z,92.83
2023-03-04T23:02:44.862Z,93.08
2023-03-04T23:05:24.873Z,93.82
2023-03-04T23:08:18.853Z,93.63
2023-03-04T23:11:08.183Z,93.46
2023-03-04T23:13:42.031Z,92.62
2023-03-04T23:16:34.880Z,91.60
2023-03-04T23:19:15.024Z,92.04
2023-03-04T23:22:01.862Z,92.14
2023-03-04T23:24:35.049Z,91.19
2023-03-04T23:27:21.931Z,89.38
2023-03-04T23:30:01.869Z,90.32
2023-03-04T23:32:49.933Z,90.71
2023-03-04T23:35:23.076Z,90.37
2023-03-04T23:38:09.873Z,89.97
2023-03-04T23:40:43.002Z,89.97
2023-03-04T23:43:29.975Z,88.37
2023-03-04T23:46:12.047Z,89.75
2023-03-04T23:49:06.899Z,88.77
2023-03-04T23:51:56.915Z,89.40
2023-03-04T23:54:31.092Z,89.24
2023-03-04T23:57:17.931Z,89.36
2023-03-04T23:59:57.944Z,89.72
